createdAt,value
2017-10-14T00:02:24.056Z,90.73
2017-10-14T00:04:51.742Z,91.05
2017-10-14T00:07:19.492Z,91.34
2017-10-14T00:09:47.156Z,91.42
2017-10-14T00:12:14.881Z,91.29
2017-10-14T00:14:42.531Z,91.22
2017-10-14T00:17:10.182Z,91.08
2017-10-14T00:19:37.783Z,90.89
2017-10-14T00:22:05.419Z,90.91
2017-10-14T00:24:33.030Z,91.13
2017-10-14T00:27:00.694Z,91.36
2017-10-14T00:29:28.340Z,91.44
2017-10-14T00:31:55.997Z,91.42
2017-10-14T00:34:23.759Z,91.52
2017-10-14T00:36:51.368Z,91.65
2017-10-14T00:39:19.020Z,92.22
2017-10-14T00:41:46.698Z,92.33
2017-10-14T00:44:14.467Z,92.42
2017-10-14T00:46:42.108Z,92.21
2017-10-14T00:49:09.722Z,91.81
2017-10-14T00:51:37.356Z,91.28
2017-10-14T00:54:04.978Z,91.18
2017-10-14T00:56:32.583Z,91.13
2017-10-14T00:59:00.138Z,91.01
2017-10-14T01:01:27.732Z,91.59
2017-10-14T01:03:55.564Z,91.83
2017-10-14T01:06:23.158Z,91.82
2017-10-14T01:08:50.754Z,91.71
2017-10-14T01:11:18.546Z,91.79
2017-10-14T01:13:46.176Z,91.62
2017-10-14T01:16:13.779Z,91.86
2017-10-14T01:18:41.411Z,91.93
2017-10-14T01:21:08.995Z,91.69
2017-10-14T01:23:36.637Z,91.66
2017-10-14T01:26:04.222Z,92.18
2017-10-14T01:28:31.834Z,92.69
2017-10-14T01:30:59.424Z,93.22
2017-10-14T01:33:27.070Z,93.53
2017-10-14T01:35:54.663Z,93.50
2017-10-14T01:38:22.247Z,93.31
2017-10-14T01:40:49.859Z,93.28
2017-10-14T01:43:17.437Z,93.28
2017-10-14T01:45:45.083Z,93.38
2017-10-14T01:48:12.663Z,93.59
2017-10-14T01:50:40.335Z,93.54
2017-10-14T01:53:07.912Z,93.35
2017-10-14T01:55:35.550Z,93.31
2017-10-14T01:58:03.132Z,93.24
2017-10-14T02:00:30.772Z,93.61
2017-10-14T02:02:58.563Z,93.93
2017-10-14T02:05:26.190Z,94.37
2017-10-14T02:07:53.779Z,94.70
2017-10-14T02:10:21.390Z,95.11
2017-10-14T02:12:48.959Z,95.52
2017-10-14T02:15:16.583Z,95.67
2017-10-14T02:17:44.182Z,95.63
2017-10-14T02:20:11.833Z,95.78
2017-10-14T02:22:39.418Z,96.17
2017-10-14T02:25:07.054Z,96.24
2017-10-14T02:27:34.655Z,96.13
2017-10-14T02:30:02.287Z,95.94
2017-10-14T02:32:29.884Z,95.88
2017-10-14T02:34:57.503Z,95.76
2017-10-14T02:37:25.108Z,95.53
2017-10-14T02:39:52.874Z,95.60
2017-10-14T02:42:20.515Z,95.82
2017-10-14T02:44:48.162Z,95.87
2017-10-14T02:47:15.762Z,96.12
2017-10-14T02:49:43.457Z,96.26
2017-10-14T02:52:11.054Z,96.11
2017-10-14T02:54:38.772Z,96.51
2017-10-14T02:57:06.363Z,96.87
2017-10-14T02:59:34.014Z,97.14
2017-10-14T03:02:01.606Z,96.93
2017-10-14T03:04:29.287Z,96.84
2017-10-14T03:06:56.922Z,96.53
2017-10-14T03:09:24.514Z,95.93
2017-10-14T03:11:52.170Z,96.11
2017-10-14T03:14:19.780Z,96.31
2017-10-14T03:16:47.607Z,96.64
2017-10-14T03:19:15.226Z,96.62
2017-10-14T03:21:42.842Z,96.25
2017-10-14T03:24:10.443Z,95.72
2017-10-14T03:26:38.088Z,95.34
2017-10-14T03:29:05.694Z,95.10
2017-10-14T03:31:33.344Z,94.91
2017-10-14T03:34:00.931Z,94.70
2017-10-14T03:36:28.554Z,94.22
2017-10-14T03:38:56.163Z,94.25
2017-10-14T03:41:23.806Z,94.28
2017-10-14T03:43:51.531Z,94.60
2017-10-14T03:46:19.346Z,95.08
2017-10-14T03:48:47.011Z,95.87
2017-10-14T03:51:14.993Z,96.40
2017-10-14T03:53:42.705Z,96.97
2017-10-14T03:56:10.330Z,97.50
2017-10-14T03:58:37.951Z,97.69
2017-10-14T04:01:05.538Z,97.58
2017-10-14T04:03:33.154Z,97.47
2017-10-14T04:06:00.753Z,97.24
2017-10-14T04:08:28.388Z,96.79
2017-10-14T04:10:55.982Z,96.69
2017-10-14T04:13:23.631Z,96.60
2017-10-14T04:15:51.214Z,96.69
2017-10-14T04:18:18.843Z,96.87
2017-10-14T04:20:46.434Z,97.04
2017-10-14T04:23:14.050Z,97.01
2017-10-14T04:25:41.643Z,96.74
2017-10-14T04:28:09.305Z,96.36
2017-10-14T04:30:36.898Z,96.20
2017-10-14T04:33:04.518Z,95.87
2017-10-14T04:35:32.123Z,95.90
2017-10-14T04:37:59.759Z,95.76
2017-10-14T04:40:27.392Z,95.76
2017-10-14T04:42:54.997Z,95.72
2017-10-14T04:45:22.597Z,95.52
2017-10-14T04:47:50.295Z,95.15
2017-10-14T04:50:18.273Z,94.75
2017-10-14T04:52:46.144Z,94.73
2017-10-14T04:55:13.951Z,94.78
2017-10-14T04:57:41.623Z,95.31
2017-10-14T05:00:09.418Z,96.41
2017-10-14T05:02:37.144Z,96.16
2017-10-14T05:05:04.938Z,96.18
2017-10-14T05:07:32.771Z,96.14
2017-10-14T05:10:00.436Z,95.90
2017-10-14T05:12:28.054Z,95.28
2017-10-14T05:14:55.675Z,95.22
2017-10-14T05:17:23.275Z,95.10
2017-10-14T05:19:50.986Z,94.95
2017-10-14T05:22:18.635Z,95.07
2017-10-14T05:24:46.258Z,94.90
2017-10-14T05:27:13.862Z,95.03
2017-10-14T05:29:41.482Z,95.14
2017-10-14T05:32:09.102Z,95.07
2017-10-14T05:34:36.709Z,95.07
2017-10-14T05:37:04.342Z,94.81
2017-10-14T05:39:31.922Z,94.61
2017-10-14T05:41:59.550Z,94.80
2017-10-14T05:44:27.146Z,95.35
2017-10-14T05:46:54.762Z,96.06
2017-10-14T05:49:22.425Z,96.20
2017-10-14T05:51:50.204Z,95.87
2017-10-14T05:54:17.851Z,95.61
2017-10-14T05:56:45.634Z,95.46
2017-10-14T05:59:14.187Z,95.14
2017-10-14T06:01:41.907Z,94.93
2017-10-14T06:04:09.566Z,94.85
2017-10-14T06:06:37.196Z,94.94
2017-10-14T06:09:04.903Z,94.89
2017-10-14T06:11:32.498Z,94.89
2017-10-14T06:14:00.121Z,94.68
2017-10-14T06:16:27.803Z,94.54
2017-10-14T06:18:55.473Z,94.35
2017-10-14T06:21:23.067Z,94.19
2017-10-14T06:23:50.712Z,94.31
2017-10-14T06:26:18.306Z,94.52
2017-10-14T06:28:45.943Z,94.48
2017-10-14T06:31:13.608Z,94.43
2017-10-14T06:33:41.245Z,94.63
2017-10-14T06:36:08.842Z,94.79
2017-10-14T06:38:36.497Z,94.87
2017-10-14T06:41:04.094Z,94.76
2017-10-14T06:43:31.720Z,94.86
2017-10-14T06:45:59.319Z,95.33
2017-10-14T06:48:26.944Z,96.19
2017-10-14T06:50:54.543Z,96.68
2017-10-14T06:53:22.181Z,96.93
2017-10-14T06:55:49.780Z,96.90
2017-10-14T06:58:17.407Z,96.81
2017-10-14T07:00:45.038Z,96.71
2017-10-14T07:03:12.654Z,96.88
2017-10-14T07:05:40.285Z,96.98
2017-10-14T07:08:07.905Z,97.24
2017-10-14T07:10:35.547Z,97.54
2017-10-14T07:13:03.167Z,97.86
2017-10-14T07:15:30.802Z,97.99
2017-10-14T07:17:58.406Z,98.16
2017-10-14T07:20:26.027Z,98.28
2017-10-14T07:22:53.646Z,98.18
2017-10-14T07:25:21.276Z,98.09
2017-10-14T07:27:48.871Z,97.98
2017-10-14T07:30:16.499Z,97.86
2017-10-14T07:32:44.110Z,97.88
2017-10-14T07:35:11.744Z,97.86
2017-10-14T07:37:39.445Z,97.68
2017-10-14T07:40:07.087Z,96.87
2017-10-14T07:42:34.871Z,96.64
2017-10-14T07:45:02.491Z,96.08
2017-10-14T07:47:30.103Z,95.84
2017-10-14T07:49:57.890Z,95.66
2017-10-14T07:52:25.521Z,95.46
2017-10-14T07:54:53.248Z,95.55
2017-10-14T07:57:21.119Z,95.17
2017-10-14T07:59:48.734Z,94.80
2017-10-14T08:02:16.359Z,94.50
2017-10-14T08:04:43.969Z,94.65
2017-10-14T08:07:11.606Z,94.76
2017-10-14T08:09:39.198Z,94.18
2017-10-14T08:12:06.827Z,94.00
2017-10-14T08:14:34.438Z,93.90
2017-10-14T08:17:02.221Z,93.54
2017-10-14T08:19:29.821Z,93.12
2017-10-14T08:21:57.511Z,93.17
2017-10-14T08:24:25.308Z,92.90
2017-10-14T08:26:53.133Z,92.08
2017-10-14T08:29:20.828Z,92.13
2017-10-14T08:31:48.467Z,92.11
2017-10-14T08:34:16.118Z,91.99
2017-10-14T08:36:43.926Z,91.24
2017-10-14T08:39:11.551Z,91.14
2017-10-14T08:41:39.400Z,90.93
2017-10-14T08:44:07.191Z,90.68
2017-10-14T08:46:34.834Z,90.62
2017-10-14T08:49:02.440Z,90.21
2017-10-14T08:51:30.098Z,89.79
2017-10-14T08:53:57.769Z,90.00
2017-10-14T08:56:25.630Z,89.51
2017-10-14T08:58:53.223Z,89.04
2017-10-14T09:01:20.875Z,88.75
2017-10-14T09:03:48.479Z,88.67
2017-10-14T09:06:16.152Z,88.21
2017-10-14T09:08:43.773Z,87.33
2017-10-14T09:11:11.435Z,87.10
2017-10-14T09:13:39.043Z,86.88
2017-10-14T09:16:06.739Z,86.52
2017-10-14T09:18:34.374Z,86.58
2017-10-14T09:21:02.074Z,85.95
2017-10-14T09:23:29.799Z,86.25
2017-10-14T09:25:57.419Z,85.70
2017-10-14T09:28:25.066Z,85.18
2017-10-14T09:30:52.699Z,84.58
2017-10-14T09:33:20.323Z,83.93
2017-10-14T09:35:47.958Z,82.89
2017-10-14T09:38:15.584Z,82.22
2017-10-14T09:40:43.222Z,82.29
2017-10-14T09:43:10.872Z,81.51
2017-10-14T09:45:38.472Z,81.21
2017-10-14T09:48:06.134Z,80.36
2017-10-14T09:50:33.736Z,80.59
2017-10-14T09:53:01.380Z,80.87
2017-10-14T09:55:29.001Z,80.06
2017-10-14T09:57:56.658Z,79.42
2017-10-14T10:00:24.311Z,79.21
2017-10-14T10:02:51.962Z,78.33
2017-10-14T10:05:19.597Z,77.54
2017-10-14T10:07:47.264Z,78.20
2017-10-14T10:10:15.131Z,77.00
2017-10-14T10:12:43.047Z,77.35
2017-10-14T10:15:10.655Z,75.68
2017-10-14T10:17:38.280Z,75.53
2017-10-14T10:20:05.971Z,75.04
2017-10-14T10:22:33.726Z,75.33
2017-10-14T10:25:01.351Z,74.47
2017-10-14T10:27:29.027Z,73.95
2017-10-14T10:29:56.668Z,73.05
2017-10-14T10:32:24.299Z,72.41
2017-10-14T10:34:51.920Z,71.73
2017-10-14T10:37:19.544Z,71.35
2017-10-14T10:39:47.220Z,71.21
2017-10-14T10:42:14.820Z,71.14
2017-10-14T10:44:42.473Z,70.98
2017-10-14T10:47:10.090Z,71.28
2017-10-14T10:49:37.751Z,70.68
2017-10-14T10:52:05.346Z,70.59
2017-10-14T10:54:32.987Z,69.49
2017-10-14T10:57:00.591Z,69.04
2017-10-14T10:59:28.259Z,68.93
2017-10-14T11:01:55.869Z,68.87
2017-10-14T11:04:23.514Z,68.48
2017-10-14T11:06:51.162Z,68.58
2017-10-14T11:09:18.786Z,67.35
2017-10-14T11:11:46.413Z,67.25
2017-10-14T11:14:14.063Z,66.58
2017-10-14T11:16:41.690Z,67.07
2017-10-14T11:19:09.316Z,65.02
2017-10-14T11:21:36.989Z,64.64
2017-10-14T11:24:04.658Z,63.96
2017-10-14T11:26:32.298Z,64.81
2017-10-14T11:28:59.927Z,64.36
2017-10-14T11:31:27.576Z,63.94
2017-10-14T11:33:55.175Z,64.10
2017-10-14T11:36:22.877Z,64.33
2017-10-14T11:38:50.480Z,62.54
2017-10-14T11:41:18.183Z,62.02
2017-10-14T11:43:45.787Z,62.67
2017-10-14T11:46:13.417Z,62.20
2017-10-14T11:48:41.039Z,60.67
2017-10-14T11:51:08.663Z,59.90
2017-10-14T11:53:36.271Z,58.62
2017-10-14T11:56:03.949Z,59.73
2017-10-14T11:58:31.603Z,58.46
2017-10-14T12:00:59.248Z,58.77
2017-10-14T12:03:26.908Z,60.65
2017-10-14T12:05:54.556Z,61.31
2017-10-14T12:08:22.181Z,61.67
2017-10-14T12:10:49.828Z,61.64
2017-10-14T12:13:17.468Z,62.43
2017-10-14T12:15:45.084Z,61.47
2017-10-14T12:18:12.685Z,61.08
2017-10-14T12:20:40.353Z,60.53
2017-10-14T12:23:07.959Z,60.25
2017-10-14T12:25:35.585Z,59.64
2017-10-14T12:28:03.175Z,59.71
2017-10-14T12:30:30.839Z,60.83
2017-10-14T12:32:58.479Z,59.97
2017-10-14T12:35:26.121Z,60.99
2017-10-14T12:37:53.733Z,61.44
2017-10-14T12:40:21.378Z,59.62
2017-10-14T12:42:48.978Z,59.47
2017-10-14T12:45:16.616Z,59.76
2017-10-14T12:47:44.326Z,58.95
2017-10-14T12:50:11.968Z,58.66
2017-10-14T12:52:39.559Z,57.34
2017-10-14T12:55:07.175Z,56.14
2017-10-14T12:57:34.801Z,57.59
2017-10-14T13:00:02.395Z,56.49
2017-10-14T13:02:30.087Z,55.70
2017-10-14T13:04:57.683Z,57.27
2017-10-14T13:07:25.315Z,59.55
2017-10-14T13:09:52.903Z,60.82
2017-10-14T13:12:20.531Z,62.32
2017-10-14T13:14:48.145Z,61.70
2017-10-14T13:17:15.776Z,61.07
2017-10-14T13:19:43.397Z,60.11
2017-10-14T13:22:11.022Z,58.94
2017-10-14T13:24:38.635Z,57.63
2017-10-14T13:27:06.311Z,58.03
2017-10-14T13:29:33.907Z,57.27
2017-10-14T13:32:01.518Z,57.44
2017-10-14T13:34:29.142Z,57.31
2017-10-14T13:36:56.796Z,57.32
2017-10-14T13:39:24.426Z,56.34
2017-10-14T13:41:52.040Z,56.39
2017-10-14T13:44:19.680Z,55.84
2017-10-14T13:46:47.271Z,55.30
2017-10-14T13:49:14.913Z,55.50
2017-10-14T13:51:42.530Z,55.65
2017-10-14T13:54:10.169Z,56.03
2017-10-14T13:56:37.802Z,56.10
2017-10-14T13:59:05.442Z,55.73
2017-10-14T14:01:33.035Z,55.55
2017-10-14T14:04:00.840Z,57.13
2017-10-14T14:06:28.538Z,56.63
2017-10-14T14:08:56.164Z,56.81
2017-10-14T14:11:23.846Z,57.39
2017-10-14T14:13:51.656Z,57.05
2017-10-14T14:16:19.275Z,57.59
2017-10-14T14:18:46.894Z,57.52
2017-10-14T14:21:14.543Z,56.71
2017-10-14T14:23:42.153Z,57.19
2017-10-14T14:26:09.754Z,57.71
2017-10-14T14:28:37.381Z,56.89
2017-10-14T14:31:05.007Z,57.66
2017-10-14T14:33:32.640Z,56.73
2017-10-14T14:36:00.243Z,56.96
2017-10-14T14:38:27.978Z,58.00
2017-10-14T14:40:55.595Z,57.82
2017-10-14T14:43:23.211Z,57.84
2017-10-14T14:45:50.819Z,57.88
2017-10-14T14:48:18.463Z,59.24
2017-10-14T14:50:46.093Z,58.80
2017-10-14T14:53:13.815Z,58.74
2017-10-14T14:55:41.435Z,58.47
2017-10-14T14:58:09.102Z,58.43
2017-10-14T15:00:36.727Z,58.01
2017-10-14T15:03:04.406Z,58.49
2017-10-14T15:05:32.016Z,58.25
2017-10-14T15:07:59.652Z,59.36
2017-10-14T15:10:27.254Z,63.84
2017-10-14T15:12:54.914Z,58.32
2017-10-14T15:15:22.559Z,59.49
2017-10-14T15:17:50.145Z,58.67
2017-10-14T15:20:17.931Z,59.66
2017-10-14T15:22:45.536Z,60.99
2017-10-14T15:25:13.174Z,62.06
2017-10-14T15:27:40.775Z,61.96
2017-10-14T15:30:08.448Z,61.78
2017-10-14T15:32:36.068Z,62.24
2017-10-14T15:35:03.691Z,62.69
2017-10-14T15:37:31.298Z,63.47
2017-10-14T15:39:58.939Z,63.67
2017-10-14T15:42:26.582Z,63.60
2017-10-14T15:44:54.244Z,63.81
2017-10-14T15:47:21.857Z,63.86
2017-10-14T15:49:49.478Z,63.97
2017-10-14T15:52:17.079Z,63.86
2017-10-14T15:54:44.712Z,64.16
2017-10-14T15:57:12.319Z,64.39
2017-10-14T15:59:39.951Z,64.31
2017-10-14T16:02:07.550Z,64.34
2017-10-14T16:04:35.196Z,64.70
2017-10-14T16:07:02.823Z,65.06
2017-10-14T16:09:30.433Z,64.51
2017-10-14T16:11:58.077Z,64.65
2017-10-14T16:14:25.675Z,64.99
2017-10-14T16:16:53.295Z,64.01
2017-10-14T16:19:20.946Z,64.66
2017-10-14T16:21:48.545Z,64.97
2017-10-14T16:24:16.237Z,66.30
2017-10-14T16:26:43.839Z,67.03
2017-10-14T16:29:11.491Z,67.05
2017-10-14T16:31:39.154Z,67.33
2017-10-14T16:34:06.742Z,67.82
2017-10-14T16:36:34.380Z,67.95
2017-10-14T16:39:01.989Z,68.30
2017-10-14T16:41:29.631Z,68.54
2017-10-14T16:43:57.238Z,68.96
2017-10-14T16:46:24.867Z,69.26
2017-10-14T16:48:52.468Z,69.70
2017-10-14T16:51:20.124Z,70.23
2017-10-14T16:53:47.734Z,70.43
2017-10-14T16:56:15.361Z,70.82
2017-10-14T16:58:42.963Z,71.11
2017-10-14T17:01:10.602Z,71.12
2017-10-14T17:03:38.254Z,71.20
2017-10-14T17:06:05.892Z,71.77
2017-10-14T17:08:33.502Z,72.11
2017-10-14T17:11:02.882Z,72.35
2017-10-14T17:13:30.518Z,72.66
2017-10-14T17:15:58.169Z,72.86
2017-10-14T17:18:25.766Z,73.48
2017-10-14T17:20:53.399Z,74.24
2017-10-14T17:23:20.995Z,74.56
2017-10-14T17:25:48.735Z,75.12
2017-10-14T17:28:16.349Z,75.63
2017-10-14T17:30:43.972Z,76.65
2017-10-14T17:33:11.582Z,76.32
2017-10-14T17:35:39.234Z,77.42
2017-10-14T17:38:06.862Z,77.11
2017-10-14T17:40:34.504Z,76.79
2017-10-14T17:43:02.152Z,76.18
2017-10-14T17:45:29.754Z,75.77
2017-10-14T17:47:57.401Z,75.66
2017-10-14T17:50:25.004Z,75.61
2017-10-14T17:52:52.632Z,75.69
2017-10-14T17:55:20.235Z,75.74
2017-10-14T17:57:47.871Z,75.73
2017-10-14T18:00:15.488Z,75.78
2017-10-14T18:02:43.157Z,75.83
2017-10-14T18:05:10.767Z,75.83
2017-10-14T18:07:38.395Z,75.79
2017-10-14T18:10:06.013Z,75.61
2017-10-14T18:12:33.634Z,75.52
2017-10-14T18:15:01.343Z,75.75
2017-10-14T18:17:28.971Z,75.66
2017-10-14T18:19:56.574Z,75.46
2017-10-14T18:22:24.206Z,75.74
2017-10-14T18:24:51.799Z,75.80
2017-10-14T18:27:19.455Z,76.03
2017-10-14T18:29:47.159Z,75.94
2017-10-14T18:32:14.772Z,75.79
2017-10-14T18:34:42.395Z,76.06
2017-10-14T18:37:09.989Z,76.11
2017-10-14T18:39:37.622Z,76.13
2017-10-14T18:42:05.220Z,76.32
2017-10-14T18:44:32.922Z,76.93
2017-10-14T18:47:00.590Z,77.23
2017-10-14T18:49:28.226Z,77.16
2017-10-14T18:51:55.906Z,77.31
2017-10-14T18:54:23.542Z,77.27
2017-10-14T18:56:51.151Z,77.17
2017-10-14T18:59:19.464Z,77.34
2017-10-14T19:01:47.091Z,77.37
2017-10-14T19:04:14.674Z,76.21
2017-10-14T19:06:42.314Z,76.61
2017-10-14T19:09:09.919Z,77.70
2017-10-14T19:11:37.566Z,78.59
2017-10-14T19:14:05.211Z,78.77
2017-10-14T19:16:32.874Z,78.65
2017-10-14T19:19:00.484Z,79.10
2017-10-14T19:21:28.140Z,79.67
2017-10-14T19:23:55.755Z,79.89
2017-10-14T19:26:23.411Z,80.18
2017-10-14T19:28:51.000Z,80.11
2017-10-14T19:31:18.638Z,80.23
2017-10-14T19:33:46.231Z,80.17
2017-10-14T19:36:13.864Z,80.01
2017-10-14T19:38:41.454Z,80.07
2017-10-14T19:41:09.137Z,80.13
2017-10-14T19:43:36.733Z,80.18
2017-10-14T19:46:04.371Z,80.27
2017-10-14T19:48:31.979Z,80.71
2017-10-14T19:50:59.609Z,80.94
2017-10-14T19:53:27.207Z,81.16
2017-10-14T19:55:54.840Z,81.75
2017-10-14T19:58:22.431Z,81.99
2017-10-14T20:00:50.027Z,81.87
2017-10-14T20:03:17.709Z,81.70
2017-10-14T20:05:45.346Z,81.66
2017-10-14T20:08:12.935Z,81.61
2017-10-14T20:10:40.596Z,81.74
2017-10-14T20:13:08.208Z,81.67
2017-10-14T20:15:35.809Z,81.38
2017-10-14T20:18:03.436Z,81.51
2017-10-14T20:20:31.065Z,81.41
2017-10-14T20:22:58.684Z,81.26
2017-10-14T20:25:26.294Z,81.46
2017-10-14T20:27:53.925Z,81.99
2017-10-14T20:30:21.567Z,82.34
2017-10-14T20:32:49.178Z,82.29
2017-10-14T20:35:16.812Z,82.35
2017-10-14T20:37:44.410Z,82.15
2017-10-14T20:40:12.051Z,82.06
2017-10-14T20:42:39.652Z,81.97
2017-10-14T20:45:07.255Z,81.89
2017-10-14T20:47:34.880Z,81.74
2017-10-14T20:50:02.536Z,81.54
2017-10-14T20:52:30.131Z,81.53
2017-10-14T20:54:57.747Z,81.58
2017-10-14T20:57:25.370Z,81.84
2017-10-14T20:59:52.979Z,81.93
2017-10-14T21:02:20.610Z,81.99
2017-10-14T21:04:48.214Z,81.93
2017-10-14T21:07:15.898Z,81.83
2017-10-14T21:09:43.459Z,81.84
2017-10-14T21:12:11.102Z,81.88
2017-10-14T21:14:38.715Z,82.03
2017-10-14T21:17:06.368Z,82.19
2017-10-14T21:19:33.968Z,82.18
2017-10-14T21:22:01.615Z,82.05
2017-10-14T21:24:29.227Z,82.16
2017-10-14T21:26:56.889Z,82.00
2017-10-14T21:29:24.488Z,81.97
2017-10-14T21:31:52.259Z,81.77
2017-10-14T21:34:20.047Z,81.77
2017-10-14T21:36:47.653Z,81.77
2017-10-14T21:39:15.294Z,81.65
2017-10-14T21:41:42.938Z,82.04
2017-10-14T21:44:10.583Z,82.60
2017-10-14T21:46:38.188Z,83.48
2017-10-14T21:49:05.816Z,84.00
2017-10-14T21:51:33.439Z,85.10
2017-10-14T21:54:01.063Z,86.70
2017-10-14T21:56:28.675Z,88.12
2017-10-14T21:58:56.293Z,88.79
2017-10-14T22:01:23.900Z,88.95
2017-10-14T22:03:51.543Z,88.97
2017-10-14T22:06:19.146Z,88.26
2017-10-14T22:08:46.879Z,87.39
2017-10-14T22:11:14.489Z,86.59
2017-10-14T22:13:42.092Z,86.21
2017-10-14T22:16:09.738Z,85.83
2017-10-14T22:18:37.334Z,85.30
2017-10-14T22:21:04.977Z,84.98
2017-10-14T22:23:32.578Z,85.24
2017-10-14T22:26:00.238Z,85.17
2017-10-14T22:28:27.840Z,85.42
2017-10-14T22:30:55.592Z,85.07
2017-10-14T22:33:23.199Z,85.08
2017-10-14T22:35:50.847Z,85.51
2017-10-14T22:38:18.475Z,86.94
2017-10-14T22:40:46.110Z,87.41
2017-10-14T22:43:13.722Z,87.42
2017-10-14T22:45:41.328Z,87.11
2017-10-14T22:48:08.981Z,86.39
2017-10-14T22:50:36.597Z,85.81
2017-10-14T22:53:04.230Z,85.36
2017-10-14T22:55:31.893Z,86.06
2017-10-14T22:57:59.523Z,86.27
2017-10-14T23:00:27.144Z,86.22
2017-10-14T23:02:54.742Z,86.14
2017-10-14T23:05:22.429Z,86.36
2017-10-14T23:07:50.035Z,86.38
2017-10-14T23:10:17.658Z,86.83
2017-10-14T23:12:45.254Z,86.50
2017-10-14T23:15:12.930Z,86.14
2017-10-14T23:17:40.527Z,85.77
2017-10-14T23:20:08.175Z,85.56
2017-10-14T23:22:35.927Z,85.43
2017-10-14T23:25:03.607Z,86.21
2017-10-14T23:27:31.206Z,87.28
2017-10-14T23:29:58.802Z,88.55
2017-10-14T23:32:26.414Z,89.60
2017-10-14T23:34:54.018Z,89.69
2017-10-14T23:37:21.647Z,90.10
2017-10-14T23:39:49.262Z,90.31
2017-10-14T23:42:16.890Z,90.26
2017-10-14T23:44:44.497Z,90.13
2017-10-14T23:47:12.131Z,90.32
2017-10-14T23:49:39.727Z,90.43
2017-10-14T23:52:07.354Z,90.54
2017-10-14T23:54:34.985Z,90.96
2017-10-14T23:57:02.719Z,91.58
2017-10-14T23:59:30.326Z,91.83
